Time;durP1;ratioP1;P1;durP2;ratioP2;P2;SDS_P1;SDS_P2;PMS_P1;PMS_P2;Temp;Humidity;BMP_temperature;BMP_pressure;BME280_temperature;BME280_humidity;BME280_pressure;Samples;Min_cycle;Max_cycle;Signal;HPM_P1;HPM_P2
2023/01/04 00:01:03;;;;;;;32.33;19.85;;;;;;;-143.57;100.00;51283.09;5060526;28;20076;-63
2023/01/04 00:03:31;;;;;;;32.70;21.27;;;;;;;-143.57;100.00;51265.22;5066016;28;20046;-63
2023/01/04 00:06:01;;;;;;;35.75;21.88;;;;;;;-143.57;100.00;51263.22;5066815;28;20164;-64
2023/01/04 00:08:28;;;;;;;32.05;20.10;;;;;;;-143.57;100.00;51269.19;5060877;28;20686;-63
2023/01/04 00:11:03;;;;;;;33.17;20.45;;;;;;;-143.57;100.00;51299.00;5066817;28;20097;-63
2023/01/04 00:13:30;;;;;;;31.60;20.13;;;;;;;-143.57;100.00;51277.16;5066053;28;20037;-63
2023/01/04 00:15:57;;;;;;;29.20;18.67;;;;;;;-143.57;100.00;51215.53;5063317;28;20067;-64
2023/01/04 00:18:34;;;;;;;32.65;19.58;;;;;;;-143.57;100.00;51271.19;5070000;28;20105;-63
2023/01/04 00:21:08;;;;;;;;;;;;;;;-143.57;100.00;51265.22;5066292;28;20090;-63
2023/01/04 00:23:37;;;;;;;31.10;19.80;;;;;;;-143.57;100.00;51279.13;5069141;28;19921;-64
2023/01/04 00:26:12;;;;;;;27.80;17.42;;;;;;;-143.57;100.00;51299.00;5060412;28;20370;-63
2023/01/04 00:28:40;;;;;;;27.95;18.42;;;;;;;-143.57;100.00;51239.38;5062340;28;20133;-64
2023/01/04 00:31:09;;;;;;;30.70;17.10;;;;;;;-143.57;100.00;51303.00;5059865;28;20044;-63
2023/01/04 00:33:36;;;;;;;31.05;18.95;;;;;;;-143.57;100.00;51255.28;5061736;28;20059;-64
2023/01/04 00:36:12;;;;;;;33.08;20.33;;;;;;;-143.57;100.00;51279.13;5067437;28;20536;-64
2023/01/04 00:38:40;;;;;;;30.92;18.95;;;;;;;-143.57;100.00;51281.13;5065820;28;20044;-63
2023/01/04 00:41:09;;;;;;;30.45;18.27;;;;;;;-143.57;100.00;51263.22;5059688;28;20040;-64
2023/01/04 00:43:55;;;;;;;38.97;22.20;;;;;;;-143.57;100.00;51237.38;5067762;28;20050;-63
2023/01/04 00:46:22;;;;;;;39.15;21.83;;;;;;;-143.57;100.00;51279.13;5059878;28;20540;-64
2023/01/04 00:48:49;;;;;;;28.95;19.05;;;;;;;-143.57;100.00;51269.19;5070561;28;20047;-64
2023/01/04 00:51:20;;;;;;;28.27;18.73;;;;;;;-143.57;100.00;51310.94;5067426;28;20051;-64
2023/01/04 00:53:47;;;;;;;29.63;17.80;;;;;;;-143.57;100.00;51251.31;5078181;28;20591;-64
2023/01/04 00:56:14;;;;;;;28.30;18.50;;;;;;;-143.57;100.00;51263.22;5073939;28;20047;-64
2023/01/04 00:58:41;;;;;;;31.40;20.23;;;;;;;-143.57;100.00;51239.38;5059937;28;20048;-64
2023/01/04 01:01:08;;;;;;;31.20;19.65;;;;;;;-143.57;100.00;51267.19;5065113;28;20044;-64
2023/01/04 01:03:35;;;;;;;29.90;20.98;;;;;;;-143.57;100.00;51279.13;5059211;28;20556;-64
2023/01/04 01:06:06;;;;;;;27.38;20.90;;;;;;;-143.57;100.00;51306.97;5071040;28;20040;-64
2023/01/04 01:08:34;;;;;;;30.65;20.38;;;;;;;-143.57;100.00;51263.22;5066859;28;20047;-64
2023/01/04 01:11:09;;;;;;;39.05;23.42;;;;;;;-143.57;100.00;51267.19;5071859;28;20044;-64
2023/01/04 01:13:36;;;;;;;34.53;21.33;;;;;;;-143.57;100.00;51263.22;5064240;28;20540;-64
2023/01/04 01:16:09;;;;;;;28.42;19.85;;;;;;;-143.57;100.00;51255.28;5066517;28;20044;-64
2023/01/04 01:18:38;;;;;;;33.92;22.08;;;;;;;-143.57;100.00;51277.16;5059627;28;20187;-64
2023/01/04 01:21:05;;;;;;;;;;;;;;;-143.57;100.00;51295.03;5059907;28;20032;-64
2023/01/04 01:23:33;;;;;;;31.42;19.38;;;;;;;-143.57;100.00;51308.94;5064941;28;20440;-64
2023/01/04 01:26:05;;;;;;;34.65;23.35;;;;;;;-143.57;100.00;51287.09;5070523;28;20101;-64
2023/01/04 01:28:33;;;;;;;29.45;20.17;;;;;;;-143.57;100.00;51243.34;5064057;28;20045;-64
2023/01/04 01:31:07;;;;;;;;;;;;;;;-143.57;100.00;51275.16;5064550;28;20049;-64
2023/01/04 01:33:36;;;;;;;26.35;17.65;;;;;;;-143.57;100.00;51285.09;5063221;28;19920;-64
2023/01/04 01:36:04;;;;;;;34.92;23.70;;;;;;;-143.57;100.00;51251.31;5063518;28;20055;-64
2023/01/04 01:38:31;;;;;;;39.83;25.48;;;;;;;-143.57;100.00;51263.22;5065539;28;20043;-64
2023/01/04 01:40:58;;;;;;;33.22;25.10;;;;;;;-143.57;100.00;51265.22;5058561;28;20768;-64
2023/01/04 01:43:55;;;;;;;38.33;24.10;;;;;;;-143.57;100.00;51263.22;5061125;28;20626;-64
2023/01/04 01:46:30;;;;;;;40.28;25.95;;;;;;;-143.57;100.00;51259.25;5061222;28;20036;-64
2023/01/04 01:49:13;;;;;;;44.05;27.45;;;;;;;-143.57;100.00;51287.09;5066289;28;20474;-64
2023/01/04 01:51:41;;;;;;;40.35;25.15;;;;;;;-143.57;100.00;51281.13;5059605;28;20601;-63
2023/01/04 01:54:25;;;;;;;37.53;22.05;;;;;;;-143.57;100.00;51263.22;5063025;28;20127;-63
2023/01/04 01:56:54;;;;;;;32.33;20.50;;;;;;;-143.57;100.00;51295.03;5062465;28;20047;-64
2023/01/04 01:59:21;;;;;;;32.70;20.45;;;;;;;-143.57;100.00;51283.09;5068460;28;20102;-63
2023/01/04 02:01:48;;;;;;;30.55;20.42;;;;;;;-143.57;100.00;51263.22;5062836;28;20052;-64
2023/01/04 02:04:16;;;;;;;27.98;18.27;;;;;;;-143.57;100.00;51247.31;5064772;28;20444;-64
2023/01/04 02:06:48;;;;;;;31.35;18.90;;;;;;;-143.57;100.00;51279.13;5060458;28;20592;-63
2023/01/04 02:09:16;;;;;;;28.02;18.50;;;;;;;-143.57;100.00;51279.13;5058297;28;20036;-63
2023/01/04 02:11:43;;;;;;;28.30;17.90;;;;;;;-143.57;100.00;51265.22;5061840;28;20078;-64
2023/01/04 02:14:27;;;;;;;28.85;19.05;;;;;;;-143.57;100.00;51287.09;5060137;28;20050;-63
2023/01/04 02:16:59;;;;;;;30.65;18.75;;;;;;;-143.57;100.00;51279.13;5059930;28;20041;-64
2023/01/04 02:20:07;;;;;;;29.17;18.20;;;;;;;-143.57;100.00;51263.22;5061437;28;20072;-64
2023/01/04 02:22:55;;;;;;;26.67;18.23;;;;;;;-143.57;100.00;51295.03;5067093;28;20055;-64
2023/01/04 02:25:53;;;;;;;24.35;17.55;;;;;;;-143.57;100.00;51209.56;5062041;28;20047;-63
2023/01/04 02:28:57;;;;;;;26.92;18.55;;;;;;;-143.57;100.00;51287.09;5063479;28;20049;-64
2023/01/04 02:31:35;;;;;;;28.17;17.77;;;;;;;-143.57;100.00;51293.03;5056361;28;20072;-64
2023/01/04 02:34:41;;;;;;;31.15;20.65;;;;;;;-143.57;100.00;51247.31;5059934;28;20106;-63
2023/01/04 02:37:20;;;;;;;42.40;22.27;;;;;;;-143.57;100.00;51275.16;5057631;28;20086;-64
2023/01/04 02:40:07;;;;;;;37.67;24.08;;;;;;;-143.57;100.00;51269.19;5057839;28;20084;-63
2023/01/04 02:46:07;;;;;;;45.33;25.23;;;;;;;-143.57;100.00;51303.00;5061487;28;20055;-63
2023/01/04 02:51:29;;;;;;;36.53;20.33;;;;;;;-143.57;100.00;51273.16;5059547;28;20324;-63
2023/01/04 02:54:01;;;;;;;40.70;24.50;;;;;;;-143.57;100.00;51295.03;5063860;28;20033;-62
2023/01/04 02:56:36;;;;;;;39.40;23.00;;;;;;;-143.57;100.00;51267.19;5068784;28;20040;-64
2023/01/04 02:59:45;;;;;;;35.42;21.83;;;;;;;-143.57;100.00;51279.13;5062463;28;20051;-63
2023/01/04 03:06:16;;;;;;;40.97;23.88;;;;;;;-143.57;100.00;51251.31;5066415;28;20048;-63
2023/01/04 03:08:57;;;;;;;39.38;23.58;;;;;;;-143.57;100.00;51267.19;5061213;28;20045;-63
2023/01/04 03:14:25;;;;;;;38.60;24.25;;;;;;;-143.57;100.00;51279.13;5068287;28;20086;-63
2023/01/04 03:17:02;;;;;;;37.45;24.65;;;;;;;-143.57;100.00;51241.34;5064376;28;20131;-63
2023/01/04 03:36:44;;;;;;;35.78;23.00;;;;;;;-143.57;100.00;51267.19;5059269;28;20063;-63
2023/01/04 03:48:28;;;;;;;37.58;23.80;;;;;;;-143.57;100.00;51299.00;5066666;28;20578;-64
2023/01/04 03:51:03;;;;;;;;;;;;;;;-143.57;100.00;51271.19;5067955;28;20036;-63
2023/01/04 03:53:36;;;;;;;52.33;30.67;;;;;;;-143.57;100.00;51291.06;5076378;28;20308;-64
2023/01/04 03:56:06;;;;;;;46.78;25.08;;;;;;;-143.57;100.00;51239.38;5065426;28;20052;-64
2023/01/04 03:58:33;;;;;;;37.80;23.85;;;;;;;-143.57;100.00;51310.94;5070533;28;20039;-64
2023/01/04 04:01:03;;;;;;;42.60;22.73;;;;;;;-143.57;100.00;51267.19;5063575;28;20044;-64
2023/01/04 04:09:02;;;;;;;39.22;22.02;;;;;;;-143.57;100.00;51279.13;5073827;28;20063;-65
2023/01/04 04:11:29;;;;;;;114.10;58.15;;;;;;;-143.57;100.00;51299.00;5066995;28;20504;-65
2023/01/04 04:13:57;;;;;;;66.13;37.17;;;;;;;-143.57;100.00;51267.19;5063111;28;20036;-64
2023/01/04 04:16:24;;;;;;;58.05;31.13;;;;;;;-143.57;100.00;51247.31;5065599;28;20091;-65
2023/01/04 04:18:51;;;;;;;50.30;29.45;;;;;;;-143.57;100.00;51310.94;5064899;28;20052;-65
2023/01/04 04:21:18;;;;;;;53.42;29.33;;;;;;;-143.57;100.00;51314.91;5059081;28;20052;-65
2023/01/04 04:23:45;;;;;;;53.60;32.88;;;;;;;-143.57;100.00;51295.03;5061379;28;20080;-64
2023/01/04 04:26:11;;;;;;;47.50;29.75;;;;;;;-143.57;100.00;51267.19;5063917;28;20152;-65
2023/01/04 04:28:38;;;;;;;53.75;31.80;;;;;;;-143.57;100.00;51263.22;5067149;28;20094;-64
2023/01/04 04:31:05;;;;;;;51.20;31.30;;;;;;;-143.57;100.00;51291.06;5060051;28;20037;-65
2023/01/04 04:33:32;;;;;;;60.63;34.70;;;;;;;-143.57;100.00;51308.94;5072088;28;20659;-64
2023/01/04 04:35:59;;;;;;;53.65;29.65;;;;;;;-143.57;100.00;51291.06;5065679;28;20045;-64
2023/01/04 04:38:26;;;;;;;50.83;28.23;;;;;;;-143.57;100.00;51299.00;5067433;28;20700;-65
2023/01/04 04:43:38;;;;;;;46.78;29.95;;;;;;;-143.57;100.00;51279.13;5072527;28;20077;-64
2023/01/04 04:46:05;;;;;;;49.25;30.42;;;;;;;-143.57;100.00;51267.19;5071313;27;20131;-63
2023/01/04 04:48:32;;;;;;;50.17;30.20;;;;;;;-143.57;100.00;51243.34;5072003;28;20045;-65
2023/01/04 04:50:59;;;;;;;39.17;27.05;;;;;;;-143.57;100.00;51271.19;5071912;27;20048;-64
2023/01/04 04:53:25;;;;;;;39.35;24.23;;;;;;;-143.57;100.00;51285.09;5070766;28;20858;-65
2023/01/04 04:55:53;;;;;;;37.20;23.88;;;;;;;-143.57;100.00;51299.00;5064957;28;20310;-64
2023/01/04 04:58:20;;;;;;;38.05;23.33;;;;;;;-143.57;100.00;51295.03;5060163;28;20044;-65
2023/01/04 05:00:47;;;;;;;35.15;22.88;;;;;;;-143.57;100.00;51279.13;5069772;28;20467;-65
2023/01/04 05:03:14;;;;;;;30.55;21.88;;;;;;;-143.57;100.00;51271.19;5059755;28;20051;-65
2023/01/04 05:05:41;;;;;;;32.70;21.25;;;;;;;-143.57;100.00;51306.97;5072072;28;20116;-65
2023/01/04 05:08:08;;;;;;;32.67;21.77;;;;;;;-143.57;100.00;51279.13;5059697;28;20530;-66
2023/01/04 05:10:36;;;;;;;29.17;20.33;;;;;;;-143.57;100.00;51287.09;5067003;28;20055;-64
2023/01/04 05:13:05;;;;;;;32.78;20.73;;;;;;;-143.57;100.00;51279.13;5060525;28;20812;-64
2023/01/04 05:15:35;;;;;;;31.05;20.35;;;;;;;-143.57;100.00;51299.00;5072177;28;20113;-65
2023/01/04 05:18:04;;;;;;;39.10;23.77;;;;;;;-143.57;100.00;51267.19;5069874;27;20053;-67
2023/01/04 05:20:31;;;;;;;31.77;21.35;;;;;;;-143.57;100.00;51283.09;5060932;28;20060;-67
2023/01/04 05:22:58;;;;;;;37.42;23.38;;;;;;;-143.57;100.00;51263.22;5068057;28;20044;-66
2023/01/04 05:25:25;;;;;;;40.42;23.42;;;;;;;-143.57;100.00;51263.22;5067281;28;20048;-65
2023/01/04 05:27:51;;;;;;;36.97;22.60;;;;;;;-143.57;100.00;51275.16;5059963;28;20060;-66
2023/01/04 05:33:05;;;;;;;30.45;19.25;;;;;;;-143.57;100.00;51247.31;5062561;28;20047;-65
2023/01/04 05:35:32;;;;;;;35.15;21.33;;;;;;;-143.57;100.00;51310.94;5078393;28;20091;-67
2023/01/04 05:37:59;;;;;;;32.72;20.25;;;;;;;-143.57;100.00;51291.06;5071362;28;20099;-66
2023/01/04 05:40:26;;;;;;;34.63;21.88;;;;;;;-143.57;100.00;51271.19;5057339;28;20521;-65
2023/01/04 05:42:53;;;;;;;36.10;23.30;;;;;;;-143.57;100.00;51299.00;5065386;28;20048;-65
2023/01/04 05:45:20;;;;;;;33.40;22.63;;;;;;;-143.57;100.00;51275.16;5069645;28;20048;-66
2023/01/04 05:47:51;;;;;;;40.13;26.17;;;;;;;-143.57;100.00;51291.06;5059991;28;20040;-65
2023/01/04 05:50:20;;;;;;;37.00;24.77;;;;;;;-143.57;100.00;51283.09;5059638;28;20036;-65
2023/01/04 05:52:47;;;;;;;46.72;29.88;;;;;;;-143.57;100.00;51279.13;5062557;28;20051;-64
2023/01/04 05:55:14;;;;;;;47.97;30.77;;;;;;;-143.57;100.00;51279.13;5063141;28;20103;-65
2023/01/04 05:57:42;;;;;;;65.95;38.08;;;;;;;-143.57;100.00;51285.09;5060580;28;20043;-65
2023/01/04 06:00:10;;;;;;;68.38;38.70;;;;;;;-143.57;100.00;51287.09;5066734;28;20044;-64
2023/01/04 06:02:41;;;;;;;46.70;29.02;;;;;;;-143.57;100.00;51243.34;5058232;28;20040;-64
2023/01/04 06:05:09;;;;;;;;;;;;;;;-143.57;100.00;51310.94;5054659;28;20053;-66
2023/01/04 06:07:37;;;;;;;35.53;24.42;;;;;;;-143.57;100.00;51279.13;5057496;28;19920;-65
2023/01/04 06:10:09;;;;;;;44.35;30.60;;;;;;;-143.57;100.00;51318.88;5060133;28;20040;-65
2023/01/04 06:12:36;;;;;;;43.83;30.17;;;;;;;-143.57;100.00;51281.13;5060178;28;20041;-64
2023/01/04 06:15:04;;;;;;;44.08;25.38;;;;;;;-143.57;100.00;51273.16;5067540;28;20045;-65
2023/01/04 06:17:31;;;;;;;46.38;27.33;;;;;;;-143.57;100.00;51283.09;5057239;28;20058;-65
2023/01/04 06:19:58;;;;;;;37.83;26.13;;;;;;;-143.57;100.00;51324.84;5063423;28;20048;-64
2023/01/04 06:22:27;;;;;;;35.75;25.38;;;;;;;-143.57;100.00;51303.00;5057370;28;20045;-63
2023/01/04 06:24:53;;;;;;;39.85;26.05;;;;;;;-143.57;100.00;51275.16;5058640;28;20047;-64
2023/01/04 06:27:20;;;;;;;51.83;32.80;;;;;;;-143.57;100.00;51275.16;5063114;28;20481;-64
2023/01/04 06:29:47;;;;;;;62.80;38.83;;;;;;;-143.57;100.00;51299.00;5062513;28;20339;-64
2023/01/04 06:32:14;;;;;;;68.05;45.78;;;;;;;-143.57;100.00;51279.13;5062716;28;20032;-63
2023/01/04 06:34:41;;;;;;;63.15;43.20;;;;;;;-143.57;100.00;51247.31;5060499;28;20063;-63
2023/01/04 06:37:08;;;;;;;44.67;30.40;;;;;;;-143.57;100.00;51283.09;5070322;28;20052;-64
2023/01/04 06:39:36;;;;;;;49.67;34.90;;;;;;;-143.57;100.00;51303.00;5062649;28;20051;-63
2023/01/04 06:42:03;;;;;;;55.65;35.28;;;;;;;-143.57;100.00;51275.16;5064875;28;20044;-63
2023/01/04 06:44:32;;;;;;;70.97;40.75;;;;;;;-143.57;100.00;51287.09;5055751;28;20590;-63
2023/01/04 06:46:59;;;;;;;96.00;63.30;;;;;;;-143.57;100.00;51330.81;5062397;28;20044;-62
2023/01/04 06:49:26;;;;;;;67.90;38.40;;;;;;;-143.57;100.00;51283.09;5062112;28;20072;-63
2023/01/04 06:51:53;;;;;;;51.65;34.78;;;;;;;-143.57;100.00;51314.91;5064114;28;20051;-63
2023/01/04 06:54:19;;;;;;;40.60;25.20;;;;;;;-143.57;100.00;51295.03;5055064;28;20513;-63
2023/01/04 06:56:46;;;;;;;42.80;29.85;;;;;;;-143.57;100.00;51310.94;5054920;28;20584;-63
2023/01/04 06:59:13;;;;;;;35.72;23.83;;;;;;;-143.57;100.00;51283.09;5061330;28;20799;-63
2023/01/04 07:01:40;;;;;;;34.38;23.30;;;;;;;-143.57;100.00;51310.94;5056872;28;20588;-63
2023/01/04 07:04:07;;;;;;;39.10;23.27;;;;;;;-143.57;100.00;51275.16;5057800;28;20047;-64
2023/01/04 07:06:34;;;;;;;44.03;24.38;;;;;;;-143.57;100.00;51295.03;5056549;28;20311;-64
2023/01/04 07:09:00;;;;;;;51.83;27.65;;;;;;;-143.57;100.00;51291.06;5057999;28;20036;-64
2023/01/04 07:11:27;;;;;;;38.95;23.27;;;;;;;-143.57;100.00;51289.06;5057322;28;20090;-64
2023/01/04 07:13:54;;;;;;;43.63;26.58;;;;;;;-143.57;100.00;51306.97;5060930;28;20521;-64
2023/01/04 07:16:21;;;;;;;37.28;22.02;;;;;;;-143.57;100.00;51326.84;5057466;28;20344;-64
2023/01/04 07:18:48;;;;;;;36.10;23.90;;;;;;;-143.57;100.00;51291.06;5071037;28;20075;-64
2023/01/04 07:21:15;;;;;;;36.33;20.20;;;;;;;-143.57;100.00;51295.03;5060688;28;20048;-64
2023/01/04 07:23:43;;;;;;;29.75;20.83;;;;;;;-143.57;100.00;51306.97;5067555;28;20548;-64
2023/01/04 07:26:09;;;;;;;27.35;19.33;;;;;;;-143.57;100.00;51318.88;5065903;28;20170;-64
2023/01/04 07:31:38;;;;;;;31.98;20.55;;;;;;;-143.57;100.00;51310.94;5065174;28;20053;-64
2023/01/04 07:34:05;;;;;;;33.40;20.67;;;;;;;-143.57;100.00;51336.78;5062113;28;20151;-64
2023/01/04 07:36:32;;;;;;;30.50;19.90;;;;;;;-143.57;100.00;51291.06;5067890;28;20052;-65
2023/01/04 07:39:00;;;;;;;29.90;18.42;;;;;;;-143.57;100.00;51283.09;5071110;28;20713;-65
2023/01/04 07:41:26;;;;;;;44.75;26.35;;;;;;;-143.57;100.00;51285.09;5068640;28;20558;-64
2023/01/04 07:43:53;;;;;;;35.55;19.63;;;;;;;-143.57;100.00;51314.91;5057213;28;20041;-64
2023/01/04 07:46:20;;;;;;;27.77;17.45;;;;;;;-143.57;100.00;51285.09;5068093;28;20105;-64
2023/01/04 07:48:47;;;;;;;29.77;17.30;;;;;;;-143.57;100.00;51267.19;5064882;28;20638;-65
2023/01/04 07:51:15;;;;;;;27.15;17.58;;;;;;;-143.57;100.00;51301.00;5064304;28;20097;-65
2023/01/04 07:53:41;;;;;;;26.38;17.77;;;;;;;-143.57;100.00;51287.09;5065632;28;20056;-62
2023/01/04 07:56:08;;;;;;;28.60;18.27;;;;;;;-143.57;100.00;51287.09;5069231;28;20517;-65
2023/01/04 07:58:44;;;;;;;30.70;20.10;;;;;;;-143.57;100.00;51316.91;5054955;28;20522;-65
2023/01/04 08:01:13;;;;;;;29.40;20.42;;;;;;;-143.57;100.00;51308.94;5064314;28;20048;-64
2023/01/04 08:03:40;;;;;;;30.55;20.42;;;;;;;-143.57;100.00;51318.88;5064261;28;20037;-64
2023/01/04 08:06:10;;;;;;;36.72;22.60;;;;;;;-143.57;100.00;51303.00;5056732;28;20048;-64
2023/01/04 08:08:38;;;;;;;34.83;23.60;;;;;;;-143.57;100.00;51287.09;5063923;28;20048;-64
2023/01/04 08:11:06;;;;;;;;;;;;;;;-143.57;100.00;51287.09;5057820;28;20045;-64
2023/01/04 08:13:33;;;;;;;36.30;22.17;;;;;;;-143.57;100.00;51303.00;5060354;28;19924;-63
2023/01/04 08:16:00;;;;;;;42.40;29.90;;;;;;;-143.57;100.00;51251.31;5059477;28;20110;-64
2023/01/04 08:18:26;;;;;;;46.13;28.17;;;;;;;-143.57;100.00;51303.00;5061682;28;21541;-64
2023/01/04 08:21:11;;;;;;;42.10;26.45;;;;;;;-143.57;100.00;51267.19;5059219;28;20044;-62
2023/01/04 08:23:39;;;;;;;39.85;25.85;;;;;;;-143.57;100.00;51310.94;5061580;28;20048;-63
2023/01/04 08:26:09;;;;;;;36.38;23.70;;;;;;;-143.57;100.00;51291.06;5056564;28;20052;-63
2023/01/04 08:28:36;;;;;;;39.25;28.70;;;;;;;-143.57;100.00;51291.06;5061119;28;20045;-63
2023/01/04 08:31:09;;;;;;;29.20;18.02;;;;;;;-143.57;100.00;51306.97;5064124;28;20039;-63
2023/01/04 08:33:37;;;;;;;30.60;21.33;;;;;;;-143.57;100.00;51219.50;5062394;27;20067;-63
2023/01/04 08:36:25;;;;;;;31.35;17.58;;;;;;;-143.57;100.00;51247.31;5062095;28;20055;-63
2023/01/04 08:38:59;;;;;;;34.00;22.50;;;;;;;-143.57;100.00;51285.09;5059595;28;20052;-63
2023/01/04 08:41:49;;;;;;;37.00;27.67;;;;;;;-143.57;100.00;51322.88;5056228;28;20048;-63
2023/01/04 08:44:36;;;;;;;27.45;18.27;;;;;;;-143.57;100.00;51310.94;5062082;28;20044;-63
2023/01/04 08:47:03;;;;;;;21.58;14.60;;;;;;;-143.57;100.00;51304.97;5057573;28;20098;-63
2023/01/04 08:49:30;;;;;;;19.80;14.07;;;;;;;-143.57;100.00;51295.03;5058333;27;20169;-64
2023/01/04 08:51:57;;;;;;;24.08;17.40;;;;;;;-143.57;100.00;51295.03;5061679;28;20052;-63
2023/01/04 08:54:24;;;;;;;22.80;14.82;;;;;;;-143.57;100.00;51318.88;5059828;28;20052;-63
2023/01/04 08:56:51;;;;;;;24.45;15.13;;;;;;;-143.57;100.00;51267.19;5057489;28;20765;-64
2023/01/04 08:59:18;;;;;;;19.38;12.38;;;;;;;-143.57;100.00;51320.88;5061495;27;20083;-63
2023/01/04 09:01:45;;;;;;;22.55;17.35;;;;;;;-143.57;100.00;51299.00;5063340;28;20102;-63
2023/01/04 09:04:12;;;;;;;25.00;16.80;;;;;;;-143.57;100.00;51283.09;5059455;27;20052;-63
2023/01/04 09:06:39;;;;;;;21.85;15.60;;;;;;;-143.57;100.00;51314.91;5067550;28;20044;-63
2023/01/04 09:09:06;;;;;;;22.02;15.98;;;;;;;-143.57;100.00;51303.00;5068979;28;20168;-63
2023/01/04 09:11:34;;;;;;;25.90;16.02;;;;;;;-143.57;100.00;51303.00;5065616;27;20048;-63
2023/01/04 09:14:01;;;;;;;24.40;16.17;;;;;;;-143.57;100.00;51295.03;5058702;28;20047;-63
2023/01/04 09:16:35;;;;;;;24.30;15.13;;;;;;;-143.57;100.00;51310.94;5065552;28;20036;-63
2023/01/04 09:19:03;;;;;;;23.42;16.95;;;;;;;-143.57;100.00;51308.94;5063780;28;20039;-63
2023/01/04 09:21:30;;;;;;;24.95;17.75;;;;;;;-143.57;100.00;51318.88;5063450;28;20083;-62
2023/01/04 09:23:57;;;;;;;21.83;14.65;;;;;;;-143.57;100.00;51346.72;5063866;28;20114;-62
2023/01/04 09:26:25;;;;;;;22.58;14.82;;;;;;;-143.57;100.00;51287.09;5064099;28;20547;-63
2023/01/04 09:28:54;;;;;;;29.88;19.13;;;;;;;-143.57;100.00;51320.88;5063888;28;20095;-63
2023/01/04 09:31:24;;;;;;;28.30;16.52;;;;;;;-143.57;100.00;51239.38;5055740;28;20048;-63
2023/01/04 09:33:51;;;;;;;27.33;18.23;;;;;;;-143.57;100.00;51299.00;5065565;28;20458;-63
2023/01/04 09:36:38;;;;;;;29.23;19.08;;;;;;;-143.57;100.00;51303.00;5062647;28;20068;-64
2023/01/04 09:39:05;;;;;;;58.22;31.42;;;;;;;-143.57;100.00;51293.03;5061506;28;20056;-63
2023/01/04 09:41:42;;;;;;;33.40;23.88;;;;;;;-143.57;100.00;51291.06;5059735;28;20075;-63
2023/01/04 09:44:08;;;;;;;28.17;19.75;;;;;;;-143.57;100.00;51271.19;5069136;28;20032;-63
2023/01/04 09:47:02;;;;;;;29.15;17.60;;;;;;;-143.57;100.00;51306.97;5062553;28;20083;-64
2023/01/04 09:49:36;;;;;;;28.67;15.93;;;;;;;-143.57;100.00;51299.00;5062396;28;20045;-64
2023/01/04 09:52:09;;;;;;;28.55;18.40;;;;;;;-143.57;100.00;51275.16;5058608;28;20044;-64
2023/01/04 09:55:06;;;;;;;29.70;17.77;;;;;;;-143.57;100.00;51287.09;5062483;28;20051;-63
2023/01/04 09:58:07;;;;;;;26.85;18.48;;;;;;;-143.57;100.00;51308.94;5057598;28;20121;-63
2023/01/04 10:00:42;;;;;;;32.67;19.70;;;;;;;-143.57;100.00;51328.81;5058774;28;20041;-64
2023/01/04 10:03:40;;;;;;;28.60;16.10;;;;;;;-143.57;100.00;51251.31;5060231;28;20037;-64
2023/01/04 10:06:11;;;;;;;33.25;20.05;;;;;;;-143.57;100.00;51293.03;5056896;28;20063;-65
2023/01/04 10:08:41;;;;;;;34.33;19.63;;;;;;;-143.57;100.00;51295.03;5057243;28;20048;-63
2023/01/04 10:11:21;;;;;;;34.05;18.75;;;;;;;-143.57;100.00;51314.91;5060791;28;20052;-64
2023/01/04 10:14:13;;;;;;;27.00;15.82;;;;;;;-143.57;100.00;51310.94;5058491;28;20052;-63
2023/01/04 10:17:02;;;;;;;25.17;17.35;;;;;;;-143.57;100.00;51299.00;5065882;28;20076;-62
2023/01/04 10:20:03;;;;;;;23.95;14.52;;;;;;;-143.57;100.00;51283.09;5058925;28;20040;-63
2023/01/04 10:23:30;;;;;;;24.80;17.60;;;;;;;-143.57;100.00;51295.03;5057209;28;20524;-63
2023/01/04 10:26:13;;;;;;;26.45;15.15;;;;;;;-143.57;100.00;51362.63;5060779;28;20055;-62
2023/01/04 10:29:15;;;;;;;26.90;17.33;;;;;;;-143.57;100.00;51289.06;5058532;28;20548;-63
2023/01/04 10:31:52;;;;;;;27.80;17.45;;;;;;;-143.57;100.00;51303.00;5052190;28;20040;-64
2023/01/04 10:34:26;;;;;;;15.95;11.13;;;;;;;-143.57;100.00;51287.09;5059576;28;20044;-65
2023/01/04 10:37:10;;;;;;;16.27;11.15;;;;;;;-143.57;100.00;51299.00;5063221;28;20105;-64
2023/01/04 10:39:37;;;;;;;23.88;13.13;;;;;;;-143.57;100.00;51330.81;5061167;28;20107;-64
2023/01/04 10:42:21;;;;;;;21.77;12.35;;;;;;;-143.57;100.00;51299.00;5062402;28;20695;-64
2023/01/04 10:45:18;;;;;;;23.83;14.32;;;;;;;-143.57;100.00;51297.03;5066896;28;20113;-63
2023/01/04 10:47:54;;;;;;;18.88;11.45;;;;;;;-143.57;100.00;51287.09;5059438;28;20072;-63
2023/01/04 10:50:26;;;;;;;19.27;12.68;;;;;;;-143.57;100.00;51279.13;5065090;28;20057;-63
2023/01/04 10:53:03;;;;;;;21.25;14.07;;;;;;;-143.57;100.00;51287.09;5059471;28;20043;-63
2023/01/04 10:55:46;;;;;;;27.13;17.77;;;;;;;-143.57;100.00;51275.16;5061008;28;20041;-63
2023/01/04 10:58:42;;;;;;;23.38;14.43;;;;;;;-143.57;100.00;51283.09;5070494;28;20122;-62
2023/01/04 11:01:32;;;;;;;22.25;13.90;;;;;;;-143.57;100.00;51332.81;5065198;28;20044;-63
2023/01/04 11:04:12;;;;;;;19.17;11.82;;;;;;;-143.57;100.00;51314.91;5061402;28;20039;-64
2023/01/04 11:06:45;;;;;;;21.67;15.85;;;;;;;-143.57;100.00;51310.94;5066812;28;20041;-64
2023/01/04 11:09:23;;;;;;;19.50;13.20;;;;;;;-143.57;100.00;51322.88;5070413;28;20051;-64
2023/01/04 11:11:55;;;;;;;16.38;10.80;;;;;;;-143.57;100.00;51314.91;5068319;28;20667;-64
2023/01/04 11:14:24;;;;;;;17.50;11.40;;;;;;;-143.57;100.00;51285.09;5065917;28;20049;-64
2023/01/04 11:16:59;;;;;;;16.45;10.77;;;;;;;-143.57;100.00;51324.84;5063318;28;20044;-64
2023/01/04 11:19:28;;;;;;;18.58;12.52;;;;;;;-143.57;100.00;51303.00;5075225;28;20044;-64
2023/01/04 11:22:05;;;;;;;17.30;11.23;;;;;;;-143.57;100.00;51295.03;5061982;28;21911;-64
2023/01/04 11:24:33;;;;;;;17.08;11.25;;;;;;;-143.57;100.00;51279.13;5073386;28;20122;-65
2023/01/04 11:27:05;;;;;;;;;;;;;;;-143.57;100.00;51291.06;5063838;28;20757;-65
2023/01/04 11:29:39;;;;;;;21.02;12.50;;;;;;;-143.57;100.00;51362.63;5063459;28;19963;-63
2023/01/04 11:32:43;;;;;;;17.90;12.00;;;;;;;-143.57;100.00;51310.94;5071345;28;21522;-64
2023/01/04 11:35:10;;;;;;;33.15;14.27;;;;;;;-143.57;100.00;51287.09;5065229;28;20131;-65
2023/01/04 11:37:39;;;;;;;30.20;15.57;;;;;;;-143.57;100.00;51303.00;5065252;28;20132;-63
2023/01/04 11:40:17;;;;;;;21.70;14.43;;;;;;;-143.57;100.00;51295.03;5063184;28;20076;-64
2023/01/04 11:42:47;;;;;;;23.38;13.77;;;;;;;-143.57;100.00;51306.97;5056983;28;20044;-64
2023/01/04 11:45:27;;;;;;;21.58;12.82;;;;;;;-143.57;100.00;51310.94;5059818;28;20098;-64
2023/01/04 11:47:56;;;;;;;20.25;11.43;;;;;;;-143.57;100.00;51350.69;5058684;28;20106;-63
2023/01/04 11:50:39;;;;;;;20.33;13.68;;;;;;;-143.57;100.00;51283.09;5060634;28;20045;-63
2023/01/04 11:53:34;;;;;;;20.40;11.70;;;;;;;-143.57;100.00;51301.00;5058316;28;20090;-64
2023/01/04 11:56:14;;;;;;;15.52;10.70;;;;;;;-143.57;100.00;51303.00;5067024;28;20050;-64
2023/01/04 11:58:43;;;;;;;19.35;12.98;;;;;;;-143.57;100.00;51235.41;5065899;28;20109;-64
2023/01/04 12:01:29;;;;;;;21.67;13.10;;;;;;;-143.57;100.00;51308.94;5066060;28;20724;-64
2023/01/04 12:03:57;;;;;;;20.02;13.13;;;;;;;-143.57;100.00;51314.91;5060786;28;20037;-65
2023/01/04 12:06:42;;;;;;;;;;;;;;;-143.57;100.00;51283.09;5064560;28;20036;-64
2023/01/04 12:09:14;;;;;;;23.75;13.20;;;;;;;-143.57;100.00;51306.97;5058396;28;19924;-64
2023/01/04 12:11:45;;;;;;;15.98;10.93;;;;;;;-143.57;100.00;51303.00;5061120;28;20861;-64
2023/01/04 12:14:35;;;;;;;21.45;12.90;;;;;;;-143.57;100.00;51301.00;5066159;28;20146;-64